createdAt,value
2022-10-22T00:01:18.387Z,99214.22
2022-10-22T00:04:01.102Z,99206.25
2022-10-22T00:06:53.072Z,99218.03
2022-10-22T00:09:35.382Z,99214.75
2022-10-22T00:12:24.126Z,99222.13
2022-10-22T00:15:06.384Z,99226.53
2022-10-22T00:17:57.011Z,99231.97
2022-10-22T00:20:39.367Z,99230.31
2022-10-22T00:23:28.011Z,99235.75
2022-10-22T00:26:24.936Z,99235.78
2022-10-22T00:29:14.096Z,99245.63
2022-10-22T00:34:44.107Z,99242.84
2022-10-22T00:37:33.103Z,99237.66
2022-10-22T00:40:16.365Z,99246.34
2022-10-22T00:43:05.362Z,99243.38
2022-10-22T00:45:47.383Z,99247.47
2022-10-22T00:48:41.156Z,99250.41
2022-10-22T00:51:23.375Z,99249.06
2022-10-22T00:54:15.089Z,99253.72
2022-10-22T00:56:57.359Z,99249.91
2022-10-22T00:59:47.073Z,99254.25
2022-10-22T01:02:29.368Z,99249.88
2022-10-22T01:05:18.119Z,99253.16
2022-10-22T01:08:02.475Z,99259.69
2022-10-22T01:11:23.120Z,99262.66
2022-10-22T01:14:20.343Z,99272.22
2022-10-22T01:17:18.166Z,99278.78
2022-10-22T01:20:15.354Z,99273.03
2022-10-22T01:23:22.998Z,99265.97
2022-10-22T01:26:51.929Z,99269.22
2022-10-22T01:29:47.990Z,99270.59
2022-10-22T01:32:33.362Z,99268.97
2022-10-22T01:35:26.015Z,99270.84
2022-10-22T01:38:13.431Z,99275.97
2022-10-22T01:41:03.005Z,99271.13
2022-10-22T01:43:45.359Z,99280.41
2022-10-22T01:46:36.100Z,99287.84
2022-10-22T01:49:31.001Z,99278.31
2022-10-22T01:52:27.070Z,99297.16
2022-10-22T01:55:30.111Z,99296.91
2022-10-22T01:59:03.807Z,99301.88
2022-10-22T02:01:55.070Z,99314.97
2022-10-22T02:04:50.005Z,99311.16
2022-10-22T02:07:45.082Z,99316.94
2022-10-22T02:10:36.083Z,99323.50
2022-10-22T02:13:23.585Z,99327.06
2022-10-22T02:16:15.981Z,99330.63
2022-10-22T02:19:02.674Z,99341.84
2022-10-22T02:21:51.089Z,99336.66
2022-10-22T02:24:41.078Z,99337.47
2022-10-22T02:27:57.963Z,99338.00
2022-10-22T02:30:51.073Z,99337.72
2022-10-22T02:33:50.343Z,99347.84
2022-10-22T02:36:40.045Z,99353.25
2022-10-22T02:39:23.429Z,99352.13
2022-10-22T02:42:12.062Z,99351.78
2022-10-22T02:44:54.369Z,99347.13
2022-10-22T02:47:44.065Z,99354.78
2022-10-22T02:50:26.354Z,99362.97
2022-10-22T02:53:15.095Z,99354.69
2022-10-22T02:55:57.328Z,99363.06
2022-10-22T02:58:46.073Z,99367.91
2022-10-22T03:01:35.092Z,99365.41
2022-10-22T03:04:17.290Z,99368.00
2022-10-22T03:07:06.074Z,99377.78
2022-10-22T03:09:48.287Z,99382.53
2022-10-22T03:12:37.062Z,99384.75
2022-10-22T03:15:19.982Z,99380.56
2022-10-22T03:18:09.081Z,99383.50
2022-10-22T03:20:51.307Z,99393.38
2022-10-22T03:23:40.968Z,99392.91
2022-10-22T03:26:36.905Z,99391.03
2022-10-22T03:29:28.051Z,99399.03
2022-10-22T03:32:10.432Z,99410.16
2022-10-22T03:37:54.062Z,99418.03
2022-10-22T03:40:43.081Z,99417.59
2022-10-22T03:43:25.336Z,99420.31
2022-10-22T03:46:13.979Z,99416.16
2022-10-22T03:49:03.383Z,99429.81
2022-10-22T03:51:51.402Z,99427.22
2022-10-22T03:54:33.166Z,99430.50
2022-10-22T03:57:21.385Z,99430.63
2022-10-22T04:00:03.047Z,99423.16
2022-10-22T04:02:46.230Z,99419.59
2022-10-22T04:05:35.069Z,99430.63
2022-10-22T04:08:24.408Z,99429.00
2022-10-22T04:11:06.080Z,99423.94
2022-10-22T04:13:54.336Z,99433.72
2022-10-22T04:16:39.075Z,99423.59
2022-10-22T04:19:21.279Z,99433.09
2022-10-22T04:22:13.042Z,99434.91
2022-10-22T04:25:02.080Z,99435.97
2022-10-22T04:27:56.920Z,99436.63
2022-10-22T04:30:46.057Z,99440.19
2022-10-22T04:33:28.383Z,99443.50
2022-10-22T04:36:19.135Z,99437.81
2022-10-22T04:39:07.377Z,99439.31
2022-10-22T04:41:56.062Z,99445.56
2022-10-22T04:44:45.072Z,99443.44
2022-10-22T04:47:27.262Z,99451.56
2022-10-22T04:50:09.001Z,99454.69
2022-10-22T04:52:51.335Z,99458.41
2022-10-22T04:55:40.081Z,99451.72
2022-10-22T04:58:22.534Z,99455.59
2022-10-22T05:01:22.079Z,99452.22
2022-10-22T05:04:06.346Z,99449.56
2022-10-22T05:06:55.048Z,99446.03
2022-10-22T05:09:44.050Z,99447.50
2022-10-22T05:12:27.149Z,99444.47
2022-10-22T05:15:16.086Z,99447.81
2022-10-22T05:18:21.769Z,99434.06
2022-10-22T05:21:12.048Z,99447.63
2022-10-22T05:23:56.503Z,99433.44
2022-10-22T05:26:45.067Z,99439.72
2022-10-22T05:29:28.377Z,99430.25
2022-10-22T05:32:17.042Z,99433.47
2022-10-22T05:34:59.357Z,99431.09
2022-10-22T05:37:48.172Z,99427.78
2022-10-22T05:40:31.554Z,99428.31
2022-10-22T05:43:20.107Z,99423.16
2022-10-22T05:46:02.962Z,99426.19
2022-10-22T05:48:52.114Z,99418.44
2022-10-22T05:51:36.489Z,99415.75
2022-10-22T05:54:28.071Z,99411.75
2022-10-22T05:57:10.514Z,99413.84
2022-10-22T05:59:59.064Z,99402.38
2022-10-22T06:02:41.801Z,99405.13
2022-10-22T06:05:31.089Z,99393.66
2022-10-22T06:08:16.785Z,99398.44
2022-10-22T06:11:09.037Z,99398.16
2022-10-22T06:13:52.503Z,99390.97
2022-10-22T06:16:42.103Z,99388.44
2022-10-22T06:19:28.135Z,99385.63
2022-10-22T06:22:17.057Z,99379.44
2022-10-22T06:25:07.124Z,99374.16
2022-10-22T06:28:05.970Z,99375.09
2022-10-22T06:30:55.478Z,99366.00
2022-10-22T06:33:41.065Z,99363.13
2022-10-22T06:36:31.611Z,99362.88
2022-10-22T06:39:14.059Z,99363.38
2022-10-22T06:41:56.413Z,99356.84
2022-10-22T06:44:49.058Z,99350.72
2022-10-22T06:47:37.353Z,99336.97
2022-10-22T06:50:20.063Z,99345.81
2022-10-22T06:53:02.283Z,99339.88
2022-10-22T06:55:51.059Z,99334.59
2022-10-22T06:58:33.246Z,99330.50
2022-10-22T07:01:25.164Z,99327.47
2022-10-22T07:04:17.063Z,99320.50
2022-10-22T07:06:59.343Z,99322.19
2022-10-22T07:09:48.061Z,99319.81
2022-10-22T07:12:30.338Z,99313.50
2022-10-22T07:15:19.106Z,99298.06
2022-10-22T07:18:01.320Z,99297.53
2022-10-22T07:20:51.068Z,99285.41
2022-10-22T07:23:41.046Z,99281.19
2022-10-22T07:26:31.869Z,99280.97
2022-10-22T07:29:23.069Z,99278.06
2022-10-22T07:32:05.384Z,99270.88
2022-10-22T07:34:54.050Z,99273.84
2022-10-22T07:37:36.529Z,99270.59
2022-10-22T07:40:25.076Z,99263.16
2022-10-22T07:43:07.485Z,99267.22
2022-10-22T07:45:56.231Z,99256.69
2022-10-22T07:48:38.571Z,99255.41
2022-10-22T07:51:27.047Z,99244.47
2022-10-22T07:54:09.336Z,99251.66
2022-10-22T07:56:58.040Z,99241.09
2022-10-22T07:59:40.349Z,99230.78
2022-10-22T08:02:29.042Z,99221.41
2022-10-22T08:05:11.393Z,99225.47
2022-10-22T08:07:59.970Z,99214.69
2022-10-22T08:10:49.071Z,99213.66
2022-10-22T08:13:31.964Z,99211.34
2022-10-22T08:16:20.970Z,99199.88
2022-10-22T08:19:09.982Z,99202.44
2022-10-22T08:31:08.181Z,99183.03
2022-10-22T08:34:16.970Z,99185.50
2022-10-22T08:37:22.075Z,99173.97
2022-10-22T08:40:04.395Z,99165.03
2022-10-22T08:43:02.970Z,99165.31
2022-10-22T08:46:29.953Z,99160.44
2022-10-22T08:49:29.057Z,99151.78
2022-10-22T08:52:12.468Z,99147.34
2022-10-22T08:55:07.049Z,99139.13
2022-10-22T08:58:05.048Z,99141.22
2022-10-22T09:01:08.041Z,99130.31
2022-10-22T09:04:33.047Z,99126.13
2022-10-22T09:07:15.442Z,99115.78
2022-10-22T09:10:09.057Z,99110.97
2022-10-22T09:12:58.051Z,99109.28
2022-10-22T09:15:41.670Z,99113.75
2022-10-22T09:19:02.970Z,99103.38
2022-10-22T09:22:00.303Z,99094.84
2022-10-22T09:24:53.058Z,99093.72
2022-10-22T09:27:38.620Z,99092.59
2022-10-22T09:30:30.960Z,99095.50
2022-10-22T09:33:18.179Z,99089.28
2022-10-22T09:36:11.124Z,99091.06
2022-10-22T09:38:56.897Z,99081.19
2022-10-22T09:41:46.114Z,99084.56
2022-10-22T09:44:29.373Z,99077.63
2022-10-22T09:48:02.565Z,99079.47
2022-10-22T09:50:54.375Z,99073.19
2022-10-22T09:53:50.050Z,99062.50
2022-10-22T09:56:56.507Z,99068.59
2022-10-22T09:59:50.965Z,99064.03
2022-10-22T10:02:43.015Z,99058.75
2022-10-22T10:05:42.323Z,99051.19
2022-10-22T10:08:26.009Z,99057.78
2022-10-22T10:11:28.961Z,99055.56
2022-10-22T10:14:39.991Z,99051.03
2022-10-22T10:17:47.479Z,99051.13
2022-10-22T10:20:49.970Z,99048.13
2022-10-22T10:23:41.442Z,99047.28
2022-10-22T10:26:29.041Z,99049.22
2022-10-22T10:29:26.466Z,99047.47
2022-10-22T10:32:23.618Z,99044.91
2022-10-22T10:35:35.967Z,99051.00
2022-10-22T10:38:49.521Z,99054.44
2022-10-22T10:42:04.962Z,99050.03
2022-10-22T10:44:56.363Z,99046.84
2022-10-22T10:48:13.082Z,99047.41
2022-10-22T10:51:31.027Z,99054.00
2022-10-22T10:54:27.041Z,99036.97
2022-10-22T10:57:58.048Z,99040.06
2022-10-22T11:01:01.341Z,99041.00
2022-10-22T11:03:50.043Z,99042.75
2022-10-22T11:06:41.411Z,99038.03
2022-10-22T11:09:26.061Z,99039.16
2022-10-22T11:12:25.211Z,99039.84
2022-10-22T11:15:37.976Z,99041.72
2022-10-22T11:18:38.350Z,99045.03
2022-10-22T11:21:40.990Z,99041.97
2022-10-22T11:24:38.329Z,99049.44
2022-10-22T11:27:41.269Z,99048.84
2022-10-22T11:30:31.558Z,99044.59
2022-10-22T11:33:24.062Z,99050.78
2022-10-22T11:36:22.021Z,99048.53
2022-10-22T11:39:13.056Z,99052.13
2022-10-22T11:41:56.343Z,99052.13
2022-10-22T11:44:57.054Z,99052.00
2022-10-22T11:48:15.339Z,99054.59
2022-10-22T11:51:09.953Z,99050.34
2022-10-22T11:53:52.940Z,99051.13
2022-10-22T11:56:48.043Z,99054.06
2022-10-22T11:59:47.374Z,99058.44
2022-10-22T12:02:53.046Z,99064.75
2022-10-22T12:05:35.989Z,99063.22
2022-10-22T12:08:29.968Z,99063.53
2022-10-22T12:12:01.131Z,99063.16
2022-10-22T12:15:00.409Z,99068.84
2022-10-22T12:17:49.052Z,99071.88
2022-10-22T12:20:31.537Z,99074.63
2022-10-22T12:23:20.973Z,99075.41
2022-10-22T12:26:12.325Z,99083.81
2022-10-22T12:28:54.056Z,99081.53
2022-10-22T12:31:41.482Z,99075.53
2022-10-22T12:34:37.060Z,99079.94
2022-10-22T12:37:27.335Z,99078.97
2022-10-22T12:40:09.955Z,99080.84
2022-10-22T12:43:02.396Z,99082.72
2022-10-22T12:45:45.056Z,99092.88
2022-10-22T12:48:44.979Z,99099.03
2022-10-22T12:51:28.389Z,99094.25
2022-10-22T12:54:26.980Z,99096.63
2022-10-22T12:57:10.337Z,99094.75
2022-10-22T13:02:54.950Z,99092.06
2022-10-22T13:05:47.045Z,99093.72
2022-10-22T13:08:34.438Z,99100.06
2022-10-22T13:11:29.053Z,99104.53
2022-10-22T13:14:26.406Z,99097.72
2022-10-22T13:17:50.050Z,99114.34
2022-10-22T13:20:40.093Z,99113.34
2022-10-22T13:23:31.508Z,99118.06
2022-10-22T13:26:24.057Z,99118.06
2022-10-22T13:29:08.382Z,99114.09
2022-10-22T13:31:59.964Z,99121.72
2022-10-22T13:34:48.931Z,99123.44
2022-10-22T13:37:40.750Z,99124.53
2022-10-22T13:40:24.042Z,99126.78
2022-10-22T13:43:06.288Z,99126.28
2022-10-22T13:45:55.098Z,99137.38
2022-10-22T13:48:44.338Z,99134.94
2022-10-22T13:51:44.042Z,99136.03
2022-10-22T13:54:26.690Z,99137.19
2022-10-22T13:57:16.058Z,99138.06
2022-10-22T14:00:05.032Z,99143.34
2022-10-22T14:02:48.582Z,99133.06
2022-10-22T14:05:38.042Z,99146.31
2022-10-22T14:08:23.486Z,99149.66
2022-10-22T14:11:12.062Z,99141.81
2022-10-22T14:13:54.433Z,99143.13
2022-10-22T14:16:43.007Z,99148.63
2022-10-22T14:19:33.047Z,99156.66
2022-10-22T14:22:24.072Z,99158.00
2022-10-22T14:25:06.376Z,99154.22
2022-10-22T14:27:54.952Z,99155.84
2022-10-22T14:30:44.137Z,99156.44
2022-10-22T14:33:35.116Z,99152.72
2022-10-22T14:36:28.077Z,99161.53
2022-10-22T14:39:16.406Z,99156.03
2022-10-22T14:41:57.961Z,99156.03
2022-10-22T14:44:48.410Z,99162.53
2022-10-22T14:47:31.037Z,99157.16
2022-10-22T14:50:20.337Z,99159.38
2022-10-22T14:53:02.317Z,99160.38
2022-10-22T14:55:53.047Z,99164.53
2022-10-22T14:58:35.383Z,99161.56
2022-10-22T15:01:24.063Z,99157.69
2022-10-22T15:04:06.486Z,99162.75
2022-10-22T15:06:55.041Z,99163.63
2022-10-22T15:09:45.042Z,99160.09
2022-10-22T15:12:34.021Z,99162.09
2022-10-22T15:15:17.334Z,99164.16
2022-10-22T15:18:08.049Z,99159.28
2022-10-22T15:20:50.463Z,99166.16
2022-10-22T15:23:39.030Z,99172.31
2022-10-22T15:26:28.963Z,99166.59
2022-10-22T15:29:24.053Z,99162.47
2022-10-22T15:32:13.301Z,99163.28
2022-10-22T15:34:56.076Z,99169.84
2022-10-22T15:37:44.352Z,99168.78
2022-10-22T15:40:25.980Z,99167.22
2022-10-22T15:43:14.337Z,99176.03
2022-10-22T15:46:18.945Z,99171.16
2022-10-22T15:49:08.476Z,99175.91
2022-10-22T15:51:50.038Z,99183.94
2022-10-22T15:54:38.948Z,99183.41
2022-10-22T15:57:21.394Z,99183.78
2022-10-22T16:00:09.957Z,99184.59
2022-10-22T16:02:52.451Z,99186.72
2022-10-22T16:05:40.934Z,99187.63
2022-10-22T16:08:24.479Z,99193.47
2022-10-22T16:11:13.025Z,99189.72
2022-10-22T16:14:03.048Z,99192.13
2022-10-22T16:16:54.355Z,99194.75
2022-10-22T16:19:37.463Z,99190.66
2022-10-22T16:22:25.300Z,99189.59
2022-10-22T16:25:07.083Z,99190.72
2022-10-22T16:27:53.198Z,99193.22
2022-10-22T16:30:42.031Z,99192.69
2022-10-22T16:33:41.134Z,99198.78
2022-10-22T16:36:40.087Z,99197.94
2022-10-22T16:39:22.253Z,99202.34
2022-10-22T16:42:10.927Z,99205.97
2022-10-22T16:45:00.018Z,99201.53
2022-10-22T16:47:50.068Z,99204.56
2022-10-22T16:50:39.362Z,99205.97
2022-10-22T16:53:22.067Z,99206.63
2022-10-22T16:56:04.352Z,99203.28
2022-10-22T16:58:54.036Z,99202.25
2022-10-22T17:01:43.143Z,99201.22
2022-10-22T17:04:25.511Z,99205.06
2022-10-22T17:07:14.021Z,99199.25
2022-10-22T17:10:03.031Z,99204.03
2022-10-22T17:12:45.342Z,99203.44
2022-10-22T17:15:34.045Z,99202.91
2022-10-22T17:18:16.560Z,99203.75
2022-10-22T17:21:05.941Z,99201.31
2022-10-22T17:23:56.024Z,99205.41
2022-10-22T17:26:38.569Z,99198.06
2022-10-22T17:29:30.064Z,99195.88
2022-10-22T17:32:12.400Z,99201.69
2022-10-22T17:35:01.104Z,99204.97
2022-10-22T17:37:49.355Z,99207.53
2022-10-22T17:40:32.019Z,99206.13
2022-10-22T17:43:20.316Z,99202.06
2022-10-22T17:46:12.036Z,99200.38
2022-10-22T17:49:00.246Z,99204.78
2022-10-22T17:51:49.088Z,99203.16
2022-10-22T17:54:38.470Z,99197.09
2022-10-22T17:57:21.018Z,99197.19
2022-10-22T18:00:10.526Z,99191.72
2022-10-22T18:02:53.007Z,99187.31
2022-10-22T18:05:35.426Z,99195.00
2022-10-22T18:08:24.002Z,99189.31
2022-10-22T18:11:17.321Z,99183.22
2022-10-22T18:16:49.457Z,99182.19
2022-10-22T18:19:32.018Z,99179.78
2022-10-22T18:22:27.020Z,99179.19
2022-10-22T18:25:17.509Z,99179.75
2022-10-22T18:27:59.003Z,99172.13
2022-10-22T18:30:51.046Z,99181.69
2022-10-22T18:33:40.054Z,99174.88
2022-10-22T18:36:32.030Z,99173.78
2022-10-22T18:39:14.551Z,99166.97
2022-10-22T18:42:03.052Z,99168.88
2022-10-22T18:44:45.454Z,99163.47
2022-10-22T18:47:34.003Z,99165.34
2022-10-22T18:50:17.291Z,99163.75
2022-10-22T18:53:06.019Z,99161.56
2022-10-22T18:55:48.447Z,99154.41
2022-10-22T18:58:37.005Z,99154.22
2022-10-22T19:01:29.084Z,99155.88
2022-10-22T19:04:18.028Z,99151.50
2022-10-22T19:07:00.490Z,99151.22
2022-10-22T19:09:50.026Z,99149.63
2022-10-22T19:12:32.497Z,99155.38
2022-10-22T19:15:21.086Z,99141.97
2022-10-22T19:18:03.478Z,99140.88
2022-10-22T19:20:54.003Z,99150.16
2022-10-22T19:23:37.531Z,99143.88
2022-10-22T19:26:29.011Z,99139.50
2022-10-22T19:29:12.357Z,99139.53
2022-10-22T19:32:01.030Z,99140.34
2022-10-22T19:34:44.144Z,99136.00
2022-10-22T19:37:33.001Z,99134.59
2022-10-22T19:40:16.510Z,99141.44
2022-10-22T19:43:05.004Z,99139.53
2022-10-22T19:45:50.423Z,99131.34
2022-10-22T19:48:39.071Z,99134.94
2022-10-22T19:51:27.347Z,99137.13
2022-10-22T19:54:20.034Z,99124.53
2022-10-22T19:59:52.999Z,99128.66
2022-10-22T20:02:42.045Z,99134.72
2022-10-22T20:05:31.293Z,99128.94
2022-10-22T20:08:13.913Z,99121.06
2022-10-22T20:11:02.917Z,99122.66
2022-10-22T20:13:49.723Z,99120.72
2022-10-22T20:16:40.992Z,99121.59
2022-10-22T20:19:33.995Z,99124.31
2022-10-22T20:22:17.986Z,99120.78
2022-10-22T20:25:07.988Z,99120.53
2022-10-22T20:27:56.309Z,99120.53
2022-10-22T20:30:39.007Z,99121.91
2022-10-22T20:33:23.175Z,99119.72
2022-10-22T20:36:16.989Z,99112.91
2022-10-22T20:39:07.223Z,99118.09
2022-10-22T20:41:55.989Z,99116.50
2022-10-22T20:44:44.981Z,99116.19
2022-10-22T20:47:34.317Z,99111.28
2022-10-22T20:50:38.998Z,99103.09
2022-10-22T20:53:28.993Z,99107.75
2022-10-22T20:56:12.050Z,99103.13
2022-10-22T20:59:12.002Z,99097.66
2022-10-22T21:02:01.995Z,99105.03
2022-10-22T21:04:45.729Z,99097.69
2022-10-22T21:07:28.005Z,99095.50
2022-10-22T21:10:17.407Z,99096.56
2022-10-22T21:12:59.030Z,99098.75
2022-10-22T21:15:41.404Z,99103.13
2022-10-22T21:18:30.008Z,99089.22
2022-10-22T21:21:20.148Z,99090.03
2022-10-22T21:24:02.897Z,99084.31
2022-10-22T21:26:45.896Z,99085.38
2022-10-22T21:29:35.035Z,99089.75
2022-10-22T21:32:23.292Z,99096.03
2022-10-22T21:35:04.885Z,99085.13
2022-10-22T21:37:53.310Z,99082.38
2022-10-22T21:40:35.912Z,99090.31
2022-10-22T21:43:19.444Z,99081.31
2022-10-22T21:46:23.931Z,99076.91
2022-10-22T21:49:06.627Z,99081.31
2022-10-22T21:51:58.979Z,99079.97
2022-10-22T21:54:47.284Z,99079.94
2022-10-22T21:57:28.904Z,99073.41
2022-10-22T22:00:19.250Z,99073.13
2022-10-22T22:03:01.022Z,99071.75
2022-10-22T22:05:51.495Z,99070.41
2022-10-22T22:08:35.122Z,99073.13
2022-10-22T22:11:27.266Z,99071.78
2022-10-22T22:14:08.984Z,99066.06
2022-10-22T22:16:51.246Z,99069.06
2022-10-22T22:19:39.986Z,99067.94
2022-10-22T22:22:28.970Z,99068.25
2022-10-22T22:25:11.899Z,99063.03
2022-10-22T22:28:00.883Z,99060.59
2022-10-22T22:30:49.920Z,99065.78
2022-10-22T22:33:38.966Z,99067.16
2022-10-22T22:36:27.246Z,99061.69
2022-10-22T22:39:09.897Z,99070.97
2022-10-22T22:42:05.972Z,99069.34
2022-10-22T22:44:54.916Z,99072.59
2022-10-22T22:47:38.278Z,99071.50
2022-10-22T22:50:26.995Z,99076.69
2022-10-22T22:53:09.281Z,99079.41
2022-10-22T22:55:57.953Z,99078.06
2022-10-22T22:58:47.892Z,99081.88
2022-10-22T23:01:39.293Z,99082.16
2022-10-22T23:04:29.897Z,99081.59
2022-10-22T23:07:18.236Z,99079.16
2022-10-22T23:10:00.032Z,99074.22
2022-10-22T23:12:49.232Z,99079.69
2022-10-22T23:15:31.022Z,99077.22
2022-10-22T23:18:20.311Z,99082.69
2022-10-22T23:21:02.971Z,99090.59
2022-10-22T23:23:50.395Z,99085.16
2022-10-22T23:26:42.027Z,99084.59
2022-10-22T23:29:30.274Z,99081.06
2022-10-22T23:32:24.984Z,99092.53
2022-10-22T23:35:13.981Z,99096.59
2022-10-22T23:38:08.973Z,99093.59
2022-10-22T23:40:58.732Z,99093.88
2022-10-22T23:43:49.014Z,99099.06
2022-10-22T23:46:39.600Z,99102.59
2022-10-22T23:49:21.991Z,99104.25
2022-10-22T23:52:04.193Z,99115.16
2022-10-22T23:54:53.028Z,99111.06
2022-10-22T23:57:35.337Z,99106.44
